createdAt,value
2016-09-19T00:00:19.700Z,-50
2016-09-19T00:01:19.681Z,-50
2016-09-19T00:02:19.717Z,-48
2016-09-19T00:03:19.694Z,-50
2016-09-19T00:04:19.721Z,-48
2016-09-19T00:05:19.673Z,-47
2016-09-19T00:06:19.690Z,-47
2016-09-19T00:07:19.673Z,-48
2016-09-19T00:08:19.706Z,-47
2016-09-19T00:09:19.692Z,-47
2016-09-19T00:10:19.719Z,-48
2016-09-19T00:11:19.714Z,-47
2016-09-19T00:12:19.705Z,-49
2016-09-19T00:13:19.714Z,-49
2016-09-19T00:14:19.739Z,-49
2016-09-19T00:15:19.723Z,-48
2016-09-19T00:16:19.717Z,-48
2016-09-19T00:17:19.776Z,-50
2016-09-19T00:18:19.769Z,-49
2016-09-19T00:19:19.732Z,-50
2016-09-19T00:20:19.749Z,-49
2016-09-19T00:21:19.763Z,-50
2016-09-19T00:22:19.739Z,-49
2016-09-19T00:23:19.703Z,-47
2016-09-19T00:24:19.747Z,-48
2016-09-19T00:25:19.684Z,-47
2016-09-19T00:26:19.743Z,-50
2016-09-19T00:27:19.719Z,-50
2016-09-19T00:28:19.738Z,-48
2016-09-19T00:29:19.725Z,-49
2016-09-19T00:30:19.823Z,-48
2016-09-19T00:31:19.759Z,-48
2016-09-19T00:32:19.742Z,-47
2016-09-19T00:33:19.803Z,-46
2016-09-19T00:34:19.715Z,-48
2016-09-19T00:35:19.833Z,-48
2016-09-19T00:36:19.798Z,-50
2016-09-19T00:37:19.760Z,-49
2016-09-19T00:38:19.890Z,-46
2016-09-19T00:39:19.732Z,-48
2016-09-19T00:40:19.768Z,-48
2016-09-19T00:41:19.910Z,-49
2016-09-19T00:42:19.911Z,-50
2016-09-19T00:43:19.860Z,-49
2016-09-19T00:44:19.892Z,-50
2016-09-19T00:45:19.929Z,-50
2016-09-19T00:46:19.852Z,-51
2016-09-19T00:47:19.856Z,-51
2016-09-19T00:48:19.772Z,-52
2016-09-19T00:49:19.756Z,-52
2016-09-19T00:50:19.756Z,-52
2016-09-19T00:51:19.760Z,-51
2016-09-19T00:52:19.754Z,-51
2016-09-19T00:53:19.748Z,-52
2016-09-19T00:54:19.748Z,-51
2016-09-19T00:55:19.769Z,-50
2016-09-19T00:56:19.886Z,-49
2016-09-19T00:57:19.773Z,-49
2016-09-19T00:58:19.757Z,-49
2016-09-19T00:59:19.757Z,-51
2016-09-19T01:00:19.790Z,-49
2016-09-19T01:01:19.807Z,-49
2016-09-19T01:02:19.759Z,-50
2016-09-19T01:03:19.797Z,-50
2016-09-19T01:04:19.770Z,-49
2016-09-19T01:05:19.788Z,-49
2016-09-19T01:06:19.782Z,-50
2016-09-19T01:07:19.782Z,-50
2016-09-19T01:08:19.795Z,-49
2016-09-19T01:09:19.822Z,-50
2016-09-19T01:10:19.780Z,-49
2016-09-19T01:11:19.821Z,-50
2016-09-19T01:12:19.773Z,-51
2016-09-19T01:13:19.779Z,-51
2016-09-19T01:14:19.766Z,-51
2016-09-19T01:15:19.840Z,-50
2016-09-19T01:16:19.814Z,-48
2016-09-19T01:17:19.766Z,-48
2016-09-19T01:18:19.803Z,-48
2016-09-19T01:19:19.809Z,-48
2016-09-19T01:20:19.773Z,-47
2016-09-19T01:21:19.765Z,-47
2016-09-19T01:22:19.808Z,-47
2016-09-19T01:23:19.818Z,-48
2016-09-19T01:24:19.827Z,-48
2016-09-19T01:25:19.820Z,-48
2016-09-19T01:26:19.827Z,-48
2016-09-19T01:27:19.829Z,-48
2016-09-19T01:28:19.798Z,-47
2016-09-19T01:29:19.781Z,-48
2016-09-19T01:30:19.843Z,-48
2016-09-19T01:31:19.779Z,-48
2016-09-19T01:32:19.741Z,-47
2016-09-19T01:33:19.766Z,-48
2016-09-19T01:34:19.789Z,-48
2016-09-19T01:35:19.778Z,-48
2016-09-19T01:36:19.793Z,-48
2016-09-19T01:37:19.846Z,-48
2016-09-19T01:38:19.778Z,-48
2016-09-19T01:39:19.945Z,-48
2016-09-19T01:40:19.781Z,-47
2016-09-19T01:41:19.795Z,-48
2016-09-19T01:42:19.788Z,-47
2016-09-19T01:43:19.856Z,-47
2016-09-19T01:44:19.821Z,-47
2016-09-19T01:45:19.781Z,-48
2016-09-19T01:46:19.787Z,-50
2016-09-19T01:47:19.792Z,-50
2016-09-19T01:48:19.856Z,-50
2016-09-19T01:49:19.779Z,-49
2016-09-19T01:50:19.800Z,-50
2016-09-19T01:51:19.833Z,-50
2016-09-19T01:52:19.788Z,-49
2016-09-19T01:53:19.819Z,-50
2016-09-19T01:54:19.818Z,-49
2016-09-19T01:55:19.794Z,-49
2016-09-19T01:56:19.840Z,-49
2016-09-19T01:57:19.849Z,-49
2016-09-19T01:58:19.834Z,-50
2016-09-19T01:59:19.798Z,-49
2016-09-19T02:00:19.839Z,-49
2016-09-19T02:01:19.868Z,-50
2016-09-19T02:02:19.824Z,-49
2016-09-19T02:03:19.821Z,-49
2016-09-19T02:04:19.833Z,-50
2016-09-19T02:05:19.829Z,-50
2016-09-19T02:06:19.814Z,-50
2016-09-19T02:07:19.829Z,-51
2016-09-19T02:08:19.868Z,-52
2016-09-19T02:09:19.844Z,-50
2016-09-19T02:10:19.851Z,-49
2016-09-19T02:11:19.826Z,-49
2016-09-19T02:12:19.793Z,-50
2016-09-19T02:13:19.853Z,-50
2016-09-19T02:14:19.827Z,-50
2016-09-19T02:15:19.853Z,-50
2016-09-19T02:16:19.828Z,-50
2016-09-19T02:17:19.807Z,-49
2016-09-19T02:18:19.826Z,-50
2016-09-19T02:19:19.874Z,-49
2016-09-19T02:20:19.868Z,-50
2016-09-19T02:21:19.835Z,-49
2016-09-19T02:22:19.820Z,-50
2016-09-19T02:23:19.829Z,-49
2016-09-19T02:24:19.824Z,-50
2016-09-19T02:25:19.826Z,-50
2016-09-19T02:26:19.830Z,-50
2016-09-19T02:27:19.831Z,-49
2016-09-19T02:28:19.863Z,-49
2016-09-19T02:29:19.856Z,-51
2016-09-19T02:30:19.870Z,-50
2016-09-19T02:31:19.871Z,-50
2016-09-19T02:32:19.849Z,-46
2016-09-19T02:33:19.838Z,-48
2016-09-19T02:34:19.829Z,-48
2016-09-19T02:35:19.845Z,-48
2016-09-19T02:36:19.837Z,-47
2016-09-19T02:37:19.882Z,-45
2016-09-19T02:38:19.890Z,-47
2016-09-19T02:39:19.849Z,-47
2016-09-19T02:40:19.887Z,-48
2016-09-19T02:41:19.846Z,-47
2016-09-19T02:42:19.846Z,-48
2016-09-19T02:43:19.856Z,-47
2016-09-19T02:44:19.819Z,-47
2016-09-19T02:45:19.830Z,-48
2016-09-19T02:46:19.814Z,-47
2016-09-19T02:47:19.835Z,-48
2016-09-19T02:48:19.855Z,-48
2016-09-19T02:49:19.831Z,-48
2016-09-19T02:50:19.821Z,-48
2016-09-19T02:51:19.846Z,-48
2016-09-19T02:52:19.883Z,-48
2016-09-19T02:53:19.800Z,-48
2016-09-19T02:54:19.837Z,-48
2016-09-19T02:55:19.836Z,-48
2016-09-19T02:56:19.910Z,-49
2016-09-19T02:57:19.853Z,-52
2016-09-19T02:58:19.850Z,-47
2016-09-19T02:59:19.855Z,-48
2016-09-19T03:00:19.833Z,-48
2016-09-19T03:01:19.876Z,-48
2016-09-19T03:02:19.857Z,-48
2016-09-19T03:03:19.859Z,-48
2016-09-19T03:04:19.845Z,-48
2016-09-19T03:05:19.842Z,-48
2016-09-19T03:06:19.840Z,-47
2016-09-19T03:07:19.863Z,-49
2016-09-19T03:08:19.860Z,-48
2016-09-19T03:09:19.811Z,-49
2016-09-19T03:10:19.839Z,-49
2016-09-19T03:11:19.897Z,-49
2016-09-19T03:12:19.852Z,-49
2016-09-19T03:13:19.849Z,-52
2016-09-19T03:14:19.879Z,-52
2016-09-19T03:15:19.841Z,-52
2016-09-19T03:16:19.883Z,-49
2016-09-19T03:17:19.869Z,-48
2016-09-19T03:18:19.881Z,-47
2016-09-19T03:19:19.884Z,-48
2016-09-19T03:20:19.862Z,-48
2016-09-19T03:21:19.859Z,-49
2016-09-19T03:22:19.860Z,-48
2016-09-19T03:23:19.894Z,-49
2016-09-19T03:24:19.842Z,-48
2016-09-19T03:25:19.896Z,-47
2016-09-19T03:26:19.884Z,-47
2016-09-19T03:27:19.913Z,-48
2016-09-19T03:28:19.942Z,-48
2016-09-19T03:29:19.949Z,-48
2016-09-19T03:30:19.927Z,-48
2016-09-19T03:31:19.911Z,-48
2016-09-19T03:32:19.866Z,-48
2016-09-19T03:33:19.872Z,-48
2016-09-19T03:34:19.909Z,-48
2016-09-19T03:35:19.840Z,-48
2016-09-19T03:36:19.922Z,-47
2016-09-19T03:37:19.915Z,-48
2016-09-19T03:38:19.898Z,-49
2016-09-19T03:39:19.919Z,-47
2016-09-19T03:40:19.925Z,-47
2016-09-19T03:41:19.900Z,-47
2016-09-19T03:42:19.875Z,-47
2016-09-19T03:43:19.885Z,-48
2016-09-19T03:44:19.865Z,-48
2016-09-19T03:45:19.879Z,-48
2016-09-19T03:46:19.842Z,-47
2016-09-19T03:47:19.895Z,-47
2016-09-19T03:48:19.935Z,-48
2016-09-19T03:49:19.941Z,-47
2016-09-19T03:50:19.925Z,-50
2016-09-19T03:51:19.879Z,-50
2016-09-19T03:52:19.897Z,-50
2016-09-19T03:53:19.896Z,-50
2016-09-19T03:54:19.920Z,-50
2016-09-19T03:55:19.939Z,-50
2016-09-19T03:56:19.885Z,-50
2016-09-19T03:57:19.913Z,-48
2016-09-19T03:58:19.898Z,-48
2016-09-19T03:59:19.887Z,-48
2016-09-19T04:00:19.903Z,-48
2016-09-19T04:01:19.876Z,-48
2016-09-19T04:02:19.916Z,-48
2016-09-19T04:03:19.879Z,-50
2016-09-19T04:04:19.915Z,-50
2016-09-19T04:05:19.920Z,-50
2016-09-19T04:06:19.939Z,-51
2016-09-19T04:07:19.929Z,-52
2016-09-19T04:08:19.943Z,-52
2016-09-19T04:09:21.209Z,-47
2016-09-19T04:10:19.900Z,-50
2016-09-19T04:11:19.915Z,-47
2016-09-19T04:12:19.913Z,-49
2016-09-19T04:13:19.906Z,-50
2016-09-19T04:14:19.952Z,-50
2016-09-19T04:15:21.185Z,-51
2016-09-19T04:16:31.008Z,-49
2016-09-19T04:17:21.199Z,-49
2016-09-19T04:18:30.678Z,-49
2016-09-19T04:19:19.986Z,-50
2016-09-19T04:20:31.248Z,-49
2016-09-19T04:21:34.490Z,-49
2016-09-19T04:22:34.234Z,-49
2016-09-19T04:23:34.317Z,-50
2016-09-19T04:24:35.011Z,-50
2016-09-19T04:25:33.945Z,-49
2016-09-19T04:26:34.854Z,-50
2016-09-19T04:27:35.126Z,-50
2016-09-19T04:28:34.949Z,-48
2016-09-19T04:29:34.077Z,-49
2016-09-19T04:30:34.511Z,-49
2016-09-19T04:31:35.067Z,-50
2016-09-19T04:32:35.399Z,-50
2016-09-19T04:33:35.311Z,-50
2016-09-19T04:34:34.904Z,-50
2016-09-19T04:35:34.823Z,-50
2016-09-19T04:36:24.253Z,-47
2016-09-19T04:37:33.322Z,-48
2016-09-19T04:38:33.833Z,-49
2016-09-19T04:39:32.913Z,-50
2016-09-19T04:40:34.558Z,-49
2016-09-19T04:41:34.732Z,-47
2016-09-19T04:42:31.024Z,-48
2016-09-19T04:43:19.919Z,-49
2016-09-19T04:44:19.940Z,-49
2016-09-19T04:45:19.979Z,-49
2016-09-19T04:46:19.927Z,-50
2016-09-19T04:47:20.009Z,-49
2016-09-19T04:48:19.990Z,-51
2016-09-19T04:49:20.005Z,-49
2016-09-19T04:50:19.964Z,-52
2016-09-19T04:51:20.039Z,-50
2016-09-19T04:52:20.018Z,-49
2016-09-19T04:53:20.016Z,-49
2016-09-19T04:54:19.977Z,-47
2016-09-19T04:55:20.012Z,-50
2016-09-19T04:56:20.170Z,-49
2016-09-19T04:57:20.018Z,-48
2016-09-19T04:58:20.031Z,-49
2016-09-19T04:59:19.986Z,-48
2016-09-19T05:00:19.980Z,-49
2016-09-19T05:01:20.048Z,-49
2016-09-19T05:02:20.184Z,-52
2016-09-19T05:03:20.020Z,-51
2016-09-19T05:04:20.030Z,-52
2016-09-19T05:05:19.983Z,-51
2016-09-19T05:06:19.999Z,-51
2016-09-19T05:07:19.996Z,-51
2016-09-19T05:08:20.076Z,-49
2016-09-19T05:09:20.046Z,-49
2016-09-19T05:10:20.026Z,-50
2016-09-19T05:11:20.338Z,-50
2016-09-19T05:12:20.073Z,-50
2016-09-19T05:13:20.050Z,-50
2016-09-19T05:14:19.992Z,-46
2016-09-19T05:15:20.046Z,-50
2016-09-19T05:16:20.005Z,-50
2016-09-19T05:17:20.011Z,-50
2016-09-19T05:18:19.988Z,-51
2016-09-19T05:19:19.957Z,-50
2016-09-19T05:20:19.990Z,-50
2016-09-19T05:21:20.070Z,-52
2016-09-19T05:22:20.085Z,-52
2016-09-19T05:23:20.033Z,-52
2016-09-19T05:24:20.608Z,-52
2016-09-19T05:25:19.993Z,-49
2016-09-19T05:26:19.996Z,-51
2016-09-19T05:27:19.977Z,-53
2016-09-19T05:28:20.009Z,-54
2016-09-19T05:29:19.989Z,-53
2016-09-19T05:30:20.037Z,-54
2016-09-19T05:31:19.967Z,-53
2016-09-19T05:32:20.054Z,-52
2016-09-19T05:33:20.057Z,-53
2016-09-19T05:34:20.021Z,-54
2016-09-19T05:35:19.965Z,-54
2016-09-19T05:36:20.061Z,-52
2016-09-19T05:37:20.975Z,-50
2016-09-19T05:38:20.041Z,-52
2016-09-19T05:39:20.038Z,-52
2016-09-19T05:40:20.045Z,-52
2016-09-19T05:41:20.040Z,-52
2016-09-19T05:42:19.999Z,-50
2016-09-19T05:43:20.026Z,-53
2016-09-19T05:44:20.003Z,-51
2016-09-19T05:45:20.032Z,-51
2016-09-19T05:46:20.014Z,-52
2016-09-19T05:47:20.053Z,-51
2016-09-19T05:48:20.025Z,-51
2016-09-19T05:49:20.049Z,-51
2016-09-19T05:50:20.034Z,-53
2016-09-19T05:51:20.006Z,-52
2016-09-19T05:52:20.026Z,-52
2016-09-19T05:53:20.008Z,-52
2016-09-19T05:54:20.053Z,-51
2016-09-19T05:55:19.986Z,-51
2016-09-19T05:56:20.037Z,-52
2016-09-19T05:57:20.043Z,-52
2016-09-19T05:58:20.095Z,-51
2016-09-19T05:59:20.013Z,-51
2016-09-19T06:00:20.061Z,-52
2016-09-19T06:01:20.096Z,-51
2016-09-19T06:02:20.031Z,-52
2016-09-19T06:03:20.064Z,-53
2016-09-19T06:04:20.053Z,-54
2016-09-19T06:05:20.003Z,-54
2016-09-19T06:06:20.052Z,-53
2016-09-19T06:07:20.077Z,-52
2016-09-19T06:08:20.042Z,-52
2016-09-19T06:09:20.031Z,-52
2016-09-19T06:10:20.040Z,-52
2016-09-19T06:11:20.035Z,-53
2016-09-19T06:12:20.112Z,-53
2016-09-19T06:13:20.090Z,-52
2016-09-19T06:14:20.240Z,-51
2016-09-19T06:15:20.168Z,-54
2016-09-19T06:16:20.127Z,-54
2016-09-19T06:17:20.198Z,-54
2016-09-19T06:18:20.188Z,-52
2016-09-19T06:19:20.152Z,-53
2016-09-19T06:20:20.152Z,-52
2016-09-19T06:21:20.064Z,-52
2016-09-19T06:22:20.072Z,-53
2016-09-19T06:23:20.075Z,-54
2016-09-19T06:24:20.136Z,-54
2016-09-19T06:25:20.155Z,-53
2016-09-19T06:26:20.091Z,-52
2016-09-19T06:27:20.101Z,-51
2016-09-19T06:28:20.072Z,-52
2016-09-19T06:29:20.035Z,-53
2016-09-19T06:30:20.027Z,-50
2016-09-19T06:31:20.056Z,-50
2016-09-19T06:32:20.031Z,-51
2016-09-19T06:33:20.088Z,-51
2016-09-19T06:34:20.040Z,-51
2016-09-19T06:35:20.045Z,-53
2016-09-19T06:36:20.054Z,-50
2016-09-19T06:37:20.072Z,-51
2016-09-19T06:38:20.095Z,-50
2016-09-19T06:39:20.078Z,-50
2016-09-19T06:40:20.074Z,-52
2016-09-19T06:41:20.069Z,-52
2016-09-19T06:42:20.076Z,-52
2016-09-19T06:43:20.056Z,-52
2016-09-19T06:44:20.069Z,-52
2016-09-19T06:45:20.070Z,-52
2016-09-19T06:46:20.074Z,-52
2016-09-19T06:47:20.089Z,-51
2016-09-19T06:48:20.062Z,-52
2016-09-19T06:49:20.016Z,-51
2016-09-19T06:50:20.060Z,-52
2016-09-19T06:51:20.093Z,-52
2016-09-19T06:52:20.099Z,-52
2016-09-19T06:53:20.172Z,-51
2016-09-19T06:54:20.078Z,-52
2016-09-19T06:55:20.050Z,-52
2016-09-19T06:56:20.088Z,-52
2016-09-19T06:57:21.109Z,-54
2016-09-19T06:58:20.059Z,-51
2016-09-19T06:59:20.065Z,-53
2016-09-19T07:00:20.065Z,-52
2016-09-19T07:01:20.096Z,-51
2016-09-19T07:02:20.068Z,-51
2016-09-19T07:03:20.038Z,-51
2016-09-19T07:04:20.088Z,-51
2016-09-19T07:05:20.078Z,-51
2016-09-19T07:06:20.082Z,-51
2016-09-19T07:07:20.076Z,-52
2016-09-19T07:08:20.095Z,-51
2016-09-19T07:09:20.105Z,-51
2016-09-19T07:10:20.071Z,-51
2016-09-19T07:11:20.068Z,-52
2016-09-19T07:12:20.091Z,-54
2016-09-19T07:13:20.071Z,-53
2016-09-19T07:14:20.056Z,-53
2016-09-19T07:15:20.099Z,-53
2016-09-19T07:16:20.148Z,-54
2016-09-19T07:17:20.098Z,-53
2016-09-19T07:18:20.060Z,-54
2016-09-19T07:19:20.097Z,-53
2016-09-19T07:20:20.118Z,-53
2016-09-19T07:21:20.103Z,-53
2016-09-19T07:22:20.121Z,-52
2016-09-19T07:23:20.064Z,-54
2016-09-19T07:24:20.292Z,-49
2016-09-19T07:25:20.282Z,-52
2016-09-19T07:26:20.233Z,-52
2016-09-19T07:27:44.763Z,-51
2016-09-19T07:28:32.132Z,-52
2016-09-19T07:29:20.251Z,-51
2016-09-19T07:30:20.246Z,-51
2016-09-19T07:31:20.311Z,-50
2016-09-19T07:32:20.245Z,-54
2016-09-19T07:33:20.305Z,-51
2016-09-19T07:34:20.279Z,-53
2016-09-19T07:35:20.198Z,-52
2016-09-19T07:36:20.228Z,-54
2016-09-19T07:37:20.269Z,-55
2016-09-19T07:38:20.227Z,-55
2016-09-19T07:39:20.216Z,-49
2016-09-19T07:40:20.258Z,-52
2016-09-19T07:41:20.265Z,-52
2016-09-19T07:42:20.322Z,-53
2016-09-19T07:43:20.284Z,-55
2016-09-19T07:44:20.311Z,-50
2016-09-19T07:45:20.125Z,-51
2016-09-19T07:46:20.258Z,-52
2016-09-19T07:47:20.203Z,-52
2016-09-19T07:48:20.247Z,-54
2016-09-19T07:49:20.447Z,-51
2016-09-19T07:50:20.223Z,-52
2016-09-19T07:51:20.269Z,-52
2016-09-19T07:52:20.136Z,-53
2016-09-19T07:53:20.082Z,-52
2016-09-19T07:54:20.136Z,-52
2016-09-19T07:55:20.141Z,-52
2016-09-19T07:56:20.208Z,-52
2016-09-19T07:57:20.125Z,-52
2016-09-19T07:58:20.129Z,-52
2016-09-19T07:59:20.111Z,-53
2016-09-19T08:00:20.140Z,-52
2016-09-19T08:01:20.157Z,-52
2016-09-19T08:02:20.195Z,-52
2016-09-19T08:03:20.156Z,-52
2016-09-19T08:04:20.162Z,-52
2016-09-19T08:05:20.159Z,-52
2016-09-19T08:06:20.212Z,-51
2016-09-19T08:07:20.130Z,-52
2016-09-19T08:08:20.143Z,-52
2016-09-19T08:09:20.138Z,-51
2016-09-19T08:10:20.188Z,-52
2016-09-19T08:11:20.172Z,-52
2016-09-19T08:12:20.113Z,-51
2016-09-19T08:13:20.124Z,-52
2016-09-19T08:14:20.114Z,-53
2016-09-19T08:15:20.142Z,-50
2016-09-19T08:16:20.137Z,-52
2016-09-19T08:17:20.140Z,-52
2016-09-19T08:18:20.140Z,-52
2016-09-19T08:19:20.145Z,-51
2016-09-19T08:20:20.168Z,-51
2016-09-19T08:21:20.255Z,-51
2016-09-19T08:22:20.150Z,-51
2016-09-19T08:23:20.182Z,-51
2016-09-19T08:24:20.129Z,-53
2016-09-19T08:25:20.182Z,-52
2016-09-19T08:26:20.156Z,-52
2016-09-19T08:27:20.129Z,-52
2016-09-19T08:28:20.189Z,-52
2016-09-19T08:29:20.194Z,-52
2016-09-19T08:30:20.159Z,-52
2016-09-19T08:31:20.188Z,-52
2016-09-19T08:32:20.153Z,-52
2016-09-19T08:33:20.212Z,-52
2016-09-19T08:34:20.172Z,-51
2016-09-19T08:35:20.151Z,-51
2016-09-19T08:36:20.218Z,-52
2016-09-19T08:37:20.191Z,-52
2016-09-19T08:38:20.113Z,-51
2016-09-19T08:39:20.147Z,-51
2016-09-19T08:40:20.159Z,-52
2016-09-19T08:41:20.156Z,-52
2016-09-19T08:42:20.180Z,-50
2016-09-19T08:43:20.205Z,-50
2016-09-19T08:44:20.147Z,-51
2016-09-19T08:45:20.161Z,-51
2016-09-19T08:46:20.252Z,-52
2016-09-19T08:47:20.202Z,-52
2016-09-19T08:48:20.178Z,-51
2016-09-19T08:49:20.300Z,-54
2016-09-19T08:50:20.411Z,-52
2016-09-19T08:51:20.418Z,-52
2016-09-19T08:52:20.218Z,-52
2016-09-19T08:53:20.294Z,-53
2016-09-19T08:54:20.449Z,-54
2016-09-19T08:55:20.349Z,-55
2016-09-19T08:56:20.709Z,-53
2016-09-19T08:57:20.401Z,-53
2016-09-19T08:58:20.423Z,-54
2016-09-19T08:59:20.161Z,-53
2016-09-19T09:00:20.202Z,-52
2016-09-19T09:01:20.556Z,-53
2016-09-19T09:02:20.182Z,-52
2016-09-19T09:03:20.200Z,-52
2016-09-19T09:04:20.179Z,-52
2016-09-19T09:05:20.920Z,-54
2016-09-19T09:06:20.324Z,-50
2016-09-19T09:07:20.185Z,-50
2016-09-19T09:08:20.296Z,-48
2016-09-19T09:09:20.243Z,-54
2016-09-19T09:10:20.218Z,-55
2016-09-19T09:11:20.241Z,-53
2016-09-19T09:12:20.252Z,-52
2016-09-19T09:13:20.201Z,-51
2016-09-19T09:14:20.217Z,-52
2016-09-19T09:15:20.297Z,-53
2016-09-19T09:16:20.277Z,-51
2016-09-19T09:17:20.241Z,-52
2016-09-19T09:18:20.235Z,-52
2016-09-19T09:19:20.819Z,-53
2016-09-19T09:20:20.234Z,-53
2016-09-19T09:21:20.240Z,-52
2016-09-19T09:22:20.230Z,-51
2016-09-19T09:23:20.250Z,-52
2016-09-19T09:24:20.199Z,-52
2016-09-19T09:25:20.234Z,-52
2016-09-19T09:26:20.179Z,-52
2016-09-19T09:27:20.276Z,-52
2016-09-19T09:28:20.250Z,-53
2016-09-19T09:29:20.203Z,-51
2016-09-19T09:30:20.224Z,-52
2016-09-19T09:31:20.245Z,-52
2016-09-19T09:32:20.263Z,-52
2016-09-19T09:33:20.225Z,-52
2016-09-19T09:34:20.222Z,-52
2016-09-19T09:35:20.196Z,-52
2016-09-19T09:36:20.229Z,-52
2016-09-19T09:37:20.338Z,-52
2016-09-19T09:38:20.229Z,-52
2016-09-19T09:39:20.221Z,-52
2016-09-19T09:40:20.222Z,-52
2016-09-19T09:41:20.272Z,-53
2016-09-19T09:42:20.226Z,-52
2016-09-19T09:43:20.225Z,-52
2016-09-19T09:44:20.243Z,-52
2016-09-19T09:45:20.244Z,-52
2016-09-19T09:46:20.203Z,-51
2016-09-19T09:47:20.214Z,-51
2016-09-19T09:48:20.248Z,-52
2016-09-19T09:49:20.224Z,-52
2016-09-19T09:50:20.261Z,-54
2016-09-19T09:51:20.283Z,-53
2016-09-19T09:52:20.284Z,-52
2016-09-19T09:53:20.300Z,-52
2016-09-19T09:54:20.266Z,-52
2016-09-19T09:55:20.309Z,-54
2016-09-19T09:56:20.280Z,-52
2016-09-19T09:57:20.290Z,-52
2016-09-19T09:58:20.242Z,-55
2016-09-19T09:59:20.238Z,-53
2016-09-19T10:00:20.222Z,-53
2016-09-19T10:01:20.261Z,-53
2016-09-19T10:02:20.307Z,-52
2016-09-19T10:03:20.326Z,-54
2016-09-19T10:04:20.259Z,-53
2016-09-19T10:05:20.222Z,-53
2016-09-19T10:06:20.249Z,-51
2016-09-19T10:07:20.278Z,-51
2016-09-19T10:08:20.211Z,-51
2016-09-19T10:09:20.242Z,-52
2016-09-19T10:10:20.242Z,-52
2016-09-19T10:11:20.306Z,-51
2016-09-19T10:12:20.283Z,-51
2016-09-19T10:13:20.293Z,-51
2016-09-19T10:14:20.294Z,-49
2016-09-19T10:15:20.292Z,-51
2016-09-19T10:16:20.299Z,-51
2016-09-19T10:17:20.383Z,-48
2016-09-19T10:18:20.267Z,-50
2016-09-19T10:19:20.289Z,-50
2016-09-19T10:20:20.258Z,-51
2016-09-19T10:21:20.291Z,-50
2016-09-19T10:22:20.275Z,-50
2016-09-19T10:23:20.260Z,-50
2016-09-19T10:24:20.264Z,-50
2016-09-19T10:25:20.259Z,-51
2016-09-19T10:26:20.264Z,-48
2016-09-19T10:27:20.230Z,-50
2016-09-19T10:28:20.248Z,-50
2016-09-19T10:29:20.268Z,-52
2016-09-19T10:30:20.275Z,-50
2016-09-19T10:31:20.296Z,-51
2016-09-19T10:32:20.237Z,-51
2016-09-19T10:33:20.281Z,-51
2016-09-19T10:34:20.259Z,-51
2016-09-19T10:35:20.249Z,-51
2016-09-19T10:36:20.244Z,-50
2016-09-19T10:37:20.332Z,-51
2016-09-19T10:38:20.298Z,-50
2016-09-19T10:39:20.274Z,-50
2016-09-19T10:40:20.258Z,-50
2016-09-19T10:41:20.274Z,-51
2016-09-19T10:42:20.226Z,-51
2016-09-19T10:43:20.320Z,-50
2016-09-19T10:44:20.271Z,-50
2016-09-19T10:45:20.298Z,-50
2016-09-19T10:46:20.222Z,-50
2016-09-19T10:47:20.228Z,-48
2016-09-19T10:48:20.257Z,-50
2016-09-19T10:49:20.251Z,-50
2016-09-19T10:50:20.279Z,-48
2016-09-19T10:51:20.297Z,-51
2016-09-19T10:52:20.286Z,-53
2016-09-19T10:53:20.289Z,-53
2016-09-19T10:54:20.313Z,-54
2016-09-19T10:55:20.305Z,-50
2016-09-19T10:56:20.303Z,-53
2016-09-19T10:57:20.295Z,-54
2016-09-19T10:58:20.304Z,-52
2016-09-19T10:59:20.324Z,-54
2016-09-19T11:00:20.391Z,-51
2016-09-19T11:01:20.303Z,-54
2016-09-19T11:02:20.348Z,-55
2016-09-19T11:04:20.313Z,-55
2016-09-19T11:05:20.340Z,-54
2016-09-19T11:06:20.350Z,-55
2016-09-19T11:07:20.332Z,-53
2016-09-19T11:08:20.333Z,-54
2016-09-19T11:09:20.311Z,-50
2016-09-19T11:10:20.330Z,-51
2016-09-19T11:11:20.380Z,-51
2016-09-19T11:12:20.300Z,-51
2016-09-19T11:13:20.313Z,-51
2016-09-19T11:14:20.317Z,-50
2016-09-19T11:15:20.293Z,-50
2016-09-19T11:16:20.344Z,-54
2016-09-19T11:17:20.379Z,-53
2016-09-19T11:19:20.330Z,-54
2016-09-19T11:20:20.305Z,-56
2016-09-19T11:21:20.336Z,-53
2016-09-19T11:22:20.318Z,-53
2016-09-19T11:23:20.355Z,-53
2016-09-19T11:24:20.370Z,-53
2016-09-19T11:25:20.300Z,-53
2016-09-19T11:26:20.337Z,-53
2016-09-19T11:27:20.326Z,-53
2016-09-19T11:28:20.322Z,-53
2016-09-19T11:29:20.296Z,-51
2016-09-19T11:30:20.323Z,-51
2016-09-19T11:31:20.342Z,-48
2016-09-19T11:32:20.325Z,-50
2016-09-19T11:33:20.345Z,-50
2016-09-19T11:34:20.355Z,-49
2016-09-19T11:35:20.301Z,-50
2016-09-19T11:36:20.385Z,-51
2016-09-19T11:37:20.361Z,-51
2016-09-19T11:38:20.335Z,-51
2016-09-19T11:39:20.403Z,-50
2016-09-19T11:40:20.541Z,-50
2016-09-19T11:41:20.343Z,-50
2016-09-19T11:42:20.349Z,-50
2016-09-19T11:43:20.298Z,-52
2016-09-19T11:44:20.368Z,-52
2016-09-19T11:45:20.373Z,-52
2016-09-19T11:46:20.326Z,-52
2016-09-19T11:47:20.353Z,-53
2016-09-19T11:48:20.355Z,-53
2016-09-19T11:49:20.339Z,-52
2016-09-19T11:50:20.414Z,-52
2016-09-19T11:51:20.438Z,-53
2016-09-19T11:52:20.372Z,-52
2016-09-19T11:53:20.367Z,-52
2016-09-19T11:54:20.372Z,-52
2016-09-19T11:55:20.345Z,-53
2016-09-19T11:56:20.355Z,-52
2016-09-19T11:57:20.319Z,-52
2016-09-19T11:58:20.366Z,-52
2016-09-19T11:59:20.353Z,-53
2016-09-19T12:00:20.374Z,-52
2016-09-19T12:01:20.380Z,-52
2016-09-19T12:02:20.345Z,-52
2016-09-19T12:03:20.394Z,-53
2016-09-19T12:04:20.349Z,-53
2016-09-19T12:05:20.391Z,-52
2016-09-19T12:06:20.415Z,-53
2016-09-19T12:07:20.386Z,-53
2016-09-19T12:08:20.371Z,-52
2016-09-19T12:09:20.423Z,-53
2016-09-19T12:10:20.364Z,-52
2016-09-19T12:11:20.427Z,-53
2016-09-19T12:12:20.502Z,-50
2016-09-19T12:13:20.405Z,-52
2016-09-19T12:14:20.391Z,-52
2016-09-19T12:15:20.995Z,-53
2016-09-19T12:16:21.229Z,-55
2016-09-19T12:17:20.390Z,-52
2016-09-19T12:18:20.413Z,-50
2016-09-19T12:19:20.381Z,-54
2016-09-19T12:20:20.422Z,-52
2016-09-19T12:21:20.421Z,-53
2016-09-19T12:22:20.431Z,-52
2016-09-19T12:23:20.355Z,-53
2016-09-19T12:24:20.720Z,-54
2016-09-19T12:25:20.470Z,-54
2016-09-19T12:26:20.491Z,-53
2016-09-19T12:27:20.473Z,-53
2016-09-19T12:28:20.525Z,-52
2016-09-19T12:29:20.524Z,-54
2016-09-19T12:30:20.428Z,-54
2016-09-19T12:31:20.420Z,-53
2016-09-19T12:32:20.413Z,-49
2016-09-19T12:33:20.452Z,-52
2016-09-19T12:34:20.398Z,-52
2016-09-19T12:35:20.509Z,-53
2016-09-19T12:36:20.385Z,-53
2016-09-19T12:37:20.402Z,-52
2016-09-19T12:38:20.381Z,-53
2016-09-19T12:39:20.416Z,-52
2016-09-19T12:40:20.419Z,-54
2016-09-19T12:41:20.470Z,-52
2016-09-19T12:42:20.463Z,-54
2016-09-19T12:43:20.440Z,-54
2016-09-19T12:44:20.468Z,-54
2016-09-19T12:45:20.497Z,-53
2016-09-19T12:46:20.509Z,-52
2016-09-19T12:47:20.441Z,-53
2016-09-19T12:48:20.487Z,-52
2016-09-19T12:49:20.450Z,-53
2016-09-19T12:50:20.420Z,-54
2016-09-19T12:51:20.435Z,-51
2016-09-19T12:52:20.422Z,-51
2016-09-19T12:53:20.480Z,-52
2016-09-19T12:54:20.445Z,-51
2016-09-19T12:55:20.443Z,-54
2016-09-19T12:56:20.460Z,-53
2016-09-19T12:57:20.445Z,-51
2016-09-19T12:58:20.504Z,-53
2016-09-19T12:59:20.456Z,-55
2016-09-19T13:00:20.504Z,-53
2016-09-19T13:01:20.537Z,-51
2016-09-19T13:02:21.062Z,-52
2016-09-19T13:03:20.445Z,-52
2016-09-19T13:04:20.430Z,-52
2016-09-19T13:05:21.022Z,-52
2016-09-19T13:06:20.479Z,-53
2016-09-19T13:07:20.473Z,-53
2016-09-19T13:08:20.519Z,-55
2016-09-19T13:09:20.474Z,-52
2016-09-19T13:10:20.518Z,-52
2016-09-19T13:11:20.481Z,-52
2016-09-19T13:12:20.535Z,-52
2016-09-19T13:13:20.438Z,-52
2016-09-19T13:14:20.500Z,-53
2016-09-19T13:15:20.438Z,-53
2016-09-19T13:16:20.554Z,-51
2016-09-19T13:17:20.544Z,-51
2016-09-19T13:18:20.545Z,-51
2016-09-19T13:19:20.609Z,-52
2016-09-19T13:20:20.544Z,-54
2016-09-19T13:21:20.472Z,-54
2016-09-19T13:22:20.470Z,-54
2016-09-19T13:23:20.533Z,-51
2016-09-19T13:24:20.538Z,-53
2016-09-19T13:25:20.483Z,-53
2016-09-19T13:26:20.505Z,-52
2016-09-19T13:27:20.560Z,-54
2016-09-19T13:28:20.458Z,-51
2016-09-19T13:29:20.506Z,-54
2016-09-19T13:30:20.551Z,-54
2016-09-19T13:31:20.514Z,-51
2016-09-19T13:32:20.515Z,-54
2016-09-19T13:33:20.467Z,-54
2016-09-19T13:34:20.522Z,-52
2016-09-19T13:35:20.532Z,-52
2016-09-19T13:36:20.494Z,-52
2016-09-19T13:37:20.515Z,-52
2016-09-19T13:38:20.515Z,-52
2016-09-19T13:39:20.468Z,-51
2016-09-19T13:40:20.460Z,-52
2016-09-19T13:41:20.460Z,-52
2016-09-19T13:42:20.475Z,-52
2016-09-19T13:43:20.423Z,-53
2016-09-19T13:44:20.455Z,-53
2016-09-19T13:45:20.467Z,-51
2016-09-19T13:46:20.556Z,-50
2016-09-19T13:47:20.521Z,-51
2016-09-19T13:48:20.473Z,-52